sensor_id;sensor_type;location;lat;lon;timestamp;P1;durP1;ratioP1;P2;durP2;ratioP2
11094;SDS011;5601;44.490;11.400;2022-07-30T00:01:08;11.45;;;8.30;;
11094;SDS011;5601;44.490;11.400;2022-07-30T00:03:35;11.02;;;8.57;;
11094;SDS011;5601;44.490;11.400;2022-07-30T00:06:03;10.05;;;8.27;;
11094;SDS011;5601;44.490;11.400;2022-07-30T00:08:31;9.68;;;8.40;;
11094;SDS011;5601;44.490;11.400;2022-07-30T00:10:58;11.50;;;8.32;;
11094;SDS011;5601;44.490;11.400;2022-07-30T00:13:27;9.77;;;8.07;;
11094;SDS011;5601;44.490;11.400;2022-07-30T00:15:54;12.20;;;8.40;;
11094;SDS011;5601;44.490;11.400;2022-07-30T00:18:22;10.55;;;8.40;;
11094;SDS011;5601;44.490;11.400;2022-07-30T00:20:49;10.43;;;7.97;;
11094;SDS011;5601;44.490;11.400;2022-07-30T00:23:16;11.77;;;8.68;;
11094;SDS011;5601;44.490;11.400;2022-07-30T00:25:44;11.43;;;8.82;;
11094;SDS011;5601;44.490;11.400;2022-07-30T00:28:11;11.45;;;8.70;;
11094;SDS011;5601;44.490;11.400;2022-07-30T00:30:40;10.45;;;8.40;;
11094;SDS011;5601;44.490;11.400;2022-07-30T00:33:07;11.98;;;8.85;;
11094;SDS011;5601;44.490;11.400;2022-07-30T00:35:35;9.52;;;8.30;;
11094;SDS011;5601;44.490;11.400;2022-07-30T00:38:03;10.05;;;8.30;;
11094;SDS011;5601;44.490;11.400;2022-07-30T00:40:31;9.10;;;7.97;;
11094;SDS011;5601;44.490;11.400;2022-07-30T00:42:59;13.60;;;8.93;;
11094;SDS011;5601;44.490;11.400;2022-07-30T00:45:26;10.98;;;7.95;;
11094;SDS011;5601;44.490;11.400;2022-07-30T00:47:54;12.32;;;8.05;;
11094;SDS011;5601;44.490;11.400;2022-07-30T00:50:25;10.45;;;7.72;;
11094;SDS011;5601;44.490;11.400;2022-07-30T00:52:53;11.20;;;8.48;;
11094;SDS011;5601;44.490;11.400;2022-07-30T00:55:20;12.43;;;8.15;;
11094;SDS011;5601;44.490;11.400;2022-07-30T00:57:47;10.93;;;8.40;;
11094;SDS011;5601;44.490;11.400;2022-07-30T01:00:15;12.20;;;8.60;;
11094;SDS011;5601;44.490;11.400;2022-07-30T01:02:42;15.10;;;9.80;;
11094;SDS011;5601;44.490;11.400;2022-07-30T01:05:11;10.43;;;8.43;;
11094;SDS011;5601;44.490;11.400;2022-07-30T01:07:39;12.48;;;9.30;;
11094;SDS011;5601;44.490;11.400;2022-07-30T01:10:08;13.00;;;8.93;;
11094;SDS011;5601;44.490;11.400;2022-07-30T01:12:37;14.50;;;10.57;;
11094;SDS011;5601;44.490;11.400;2022-07-30T01:15:06;13.43;;;9.65;;
11094;SDS011;5601;44.490;11.400;2022-07-30T01:17:34;14.00;;;10.70;;
11094;SDS011;5601;44.490;11.400;2022-07-30T01:20:03;11.45;;;9.27;;
11094;SDS011;5601;44.490;11.400;2022-07-30T01:22:34;14.43;;;10.65;;
11094;SDS011;5601;44.490;11.400;2022-07-30T01:25:11;12.45;;;10.05;;
11094;SDS011;5601;44.490;11.400;2022-07-30T01:27:45;13.88;;;10.45;;
11094;SDS011;5601;44.490;11.400;2022-07-30T01:30:16;13.75;;;9.82;;
11094;SDS011;5601;44.490;11.400;2022-07-30T01:32:46;14.52;;;10.60;;
11094;SDS011;5601;44.490;11.400;2022-07-30T01:35:14;12.65;;;10.05;;
11094;SDS011;5601;44.490;11.400;2022-07-30T01:37:44;13.05;;;9.75;;
11094;SDS011;5601;44.490;11.400;2022-07-30T01:40:13;13.77;;;11.10;;
11094;SDS011;5601;44.490;11.400;2022-07-30T01:42:41;13.75;;;10.57;;
11094;SDS011;5601;44.490;11.400;2022-07-30T01:45:12;14.10;;;11.20;;
11094;SDS011;5601;44.490;11.400;2022-07-30T01:47:41;13.55;;;11.05;;
11094;SDS011;5601;44.490;11.400;2022-07-30T01:50:11;17.38;;;11.05;;
11094;SDS011;5601;44.490;11.400;2022-07-30T01:52:40;13.75;;;10.63;;
11094;SDS011;5601;44.490;11.400;2022-07-30T01:55:11;15.00;;;10.90;;
11094;SDS011;5601;44.490;11.400;2022-07-30T01:57:44;14.45;;;10.43;;
11094;SDS011;5601;44.490;11.400;2022-07-30T02:00:13;13.35;;;10.32;;
11094;SDS011;5601;44.490;11.400;2022-07-30T02:02:41;12.43;;;10.52;;
11094;SDS011;5601;44.490;11.400;2022-07-30T02:05:08;13.95;;;9.20;;
11094;SDS011;5601;44.490;11.400;2022-07-30T02:07:37;13.40;;;10.05;;
11094;SDS011;5601;44.490;11.400;2022-07-30T02:10:12;14.43;;;9.75;;
11094;SDS011;5601;44.490;11.400;2022-07-30T02:12:47;13.82;;;9.93;;
11094;SDS011;5601;44.490;11.400;2022-07-30T02:15:18;13.88;;;9.68;;
11094;SDS011;5601;44.490;11.400;2022-07-30T02:17:49;11.35;;;9.18;;
11094;SDS011;5601;44.490;11.400;2022-07-30T02:20:21;11.30;;;9.35;;
11094;SDS011;5601;44.490;11.400;2022-07-30T02:22:52;15.68;;;9.50;;
11094;SDS011;5601;44.490;11.400;2022-07-30T02:25:22;10.68;;;9.40;;
11094;SDS011;5601;44.490;11.400;2022-07-30T02:27:53;13.90;;;10.43;;
11094;SDS011;5601;44.490;11.400;2022-07-30T02:30:25;14.25;;;9.25;;
11094;SDS011;5601;44.490;11.400;2022-07-30T02:32:58;11.45;;;9.07;;
11094;SDS011;5601;44.490;11.400;2022-07-30T02:35:29;11.45;;;8.48;;
11094;SDS011;5601;44.490;11.400;2022-07-30T02:37:58;10.95;;;9.18;;
11094;SDS011;5601;44.490;11.400;2022-07-30T02:40:27;13.70;;;8.50;;
11094;SDS011;5601;44.490;11.400;2022-07-30T02:42:56;11.60;;;8.60;;
11094;SDS011;5601;44.490;11.400;2022-07-30T02:45:24;13.35;;;9.07;;
11094;SDS011;5601;44.490;11.400;2022-07-30T02:47:53;13.90;;;8.90;;
11094;SDS011;5601;44.490;11.400;2022-07-30T02:50:23;10.23;;;8.68;;
11094;SDS011;5601;44.490;11.400;2022-07-30T02:52:52;11.57;;;8.18;;
11094;SDS011;5601;44.490;11.400;2022-07-30T02:55:20;11.98;;;8.70;;
11094;SDS011;5601;44.490;11.400;2022-07-30T02:57:50;11.18;;;8.45;;
11094;SDS011;5601;44.490;11.400;2022-07-30T03:00:21;11.32;;;8.63;;
11094;SDS011;5601;44.490;11.400;2022-07-30T03:02:52;12.00;;;8.38;;
11094;SDS011;5601;44.490;11.400;2022-07-30T03:05:21;11.15;;;7.70;;
11094;SDS011;5601;44.490;11.400;2022-07-30T03:07:49;8.80;;;6.95;;
11094;SDS011;5601;44.490;11.400;2022-07-30T03:10:19;7.78;;;6.57;;
11094;SDS011;5601;44.490;11.400;2022-07-30T03:12:47;10.15;;;6.57;;
11094;SDS011;5601;44.490;11.400;2022-07-30T03:15:16;8.70;;;6.60;;
11094;SDS011;5601;44.490;11.400;2022-07-30T03:17:48;8.23;;;6.53;;
11094;SDS011;5601;44.490;11.400;2022-07-30T03:20:20;9.65;;;6.18;;
11094;SDS011;5601;44.490;11.400;2022-07-30T03:22:52;8.85;;;6.18;;
11094;SDS011;5601;44.490;11.400;2022-07-30T03:25:21;7.65;;;6.38;;
11094;SDS011;5601;44.490;11.400;2022-07-30T03:27:51;8.13;;;6.38;;
11094;SDS011;5601;44.490;11.400;2022-07-30T03:30:22;8.70;;;6.10;;
11094;SDS011;5601;44.490;11.400;2022-07-30T03:32:52;8.45;;;5.95;;
11094;SDS011;5601;44.490;11.400;2022-07-30T03:35:21;6.65;;;5.05;;
11094;SDS011;5601;44.490;11.400;2022-07-30T03:37:50;6.40;;;5.30;;
11094;SDS011;5601;44.490;11.400;2022-07-30T03:40:18;8.32;;;5.40;;
11094;SDS011;5601;44.490;11.400;2022-07-30T03:42:47;5.70;;;5.00;;
11094;SDS011;5601;44.490;11.400;2022-07-30T03:45:16;6.30;;;5.70;;
11094;SDS011;5601;44.490;11.400;2022-07-30T03:47:45;6.50;;;5.45;;
11094;SDS011;5601;44.490;11.400;2022-07-30T03:50:14;8.88;;;5.63;;
11094;SDS011;5601;44.490;11.400;2022-07-30T03:52:42;7.72;;;5.57;;
11094;SDS011;5601;44.490;11.400;2022-07-30T03:55:10;6.00;;;5.30;;
11094;SDS011;5601;44.490;11.400;2022-07-30T03:57:39;5.30;;;4.80;;
11094;SDS011;5601;44.490;11.400;2022-07-30T04:00:11;6.40;;;5.53;;
11094;SDS011;5601;44.490;11.400;2022-07-30T04:02:40;7.18;;;5.25;;
11094;SDS011;5601;44.490;11.400;2022-07-30T04:05:08;7.57;;;5.32;;
11094;SDS011;5601;44.490;11.400;2022-07-30T04:07:38;7.55;;;4.68;;
11094;SDS011;5601;44.490;11.400;2022-07-30T04:10:06;6.70;;;5.13;;
11094;SDS011;5601;44.490;11.400;2022-07-30T04:12:33;5.50;;;4.53;;
11094;SDS011;5601;44.490;11.400;2022-07-30T04:15:01;7.43;;;5.15;;
11094;SDS011;5601;44.490;11.400;2022-07-30T04:17:31;6.07;;;4.97;;
11094;SDS011;5601;44.490;11.400;2022-07-30T04:20:04;6.75;;;5.35;;
11094;SDS011;5601;44.490;11.400;2022-07-30T04:22:35;8.77;;;5.55;;
11094;SDS011;5601;44.490;11.400;2022-07-30T04:25:06;9.00;;;5.65;;
11094;SDS011;5601;44.490;11.400;2022-07-30T04:27:35;7.10;;;4.90;;
11094;SDS011;5601;44.490;11.400;2022-07-30T04:30:05;6.80;;;5.28;;
11094;SDS011;5601;44.490;11.400;2022-07-30T04:32:32;7.70;;;5.53;;
11094;SDS011;5601;44.490;11.400;2022-07-30T04:35:01;7.10;;;5.30;;
11094;SDS011;5601;44.490;11.400;2022-07-30T04:37:29;7.93;;;5.28;;
11094;SDS011;5601;44.490;11.400;2022-07-30T04:39:58;8.60;;;5.45;;
11094;SDS011;5601;44.490;11.400;2022-07-30T04:42:26;12.57;;;5.10;;
11094;SDS011;5601;44.490;11.400;2022-07-30T04:44:54;8.00;;;5.00;;
